createdAt,value
2023-05-18T00:00:16.252Z,4.90
2023-05-18T00:02:49.987Z,5.05
2023-05-18T00:05:20.841Z,4.80
2023-05-18T00:07:47.992Z,5.28
2023-05-18T00:10:21.756Z,5.30
2023-05-18T00:12:49.130Z,4.70
2023-05-18T00:15:22.855Z,4.70
2023-05-18T00:17:50.645Z,4.95
2023-05-18T00:20:18.716Z,5.88
2023-05-18T00:22:54.750Z,6.28
2023-05-18T00:25:22.048Z,6.03
2023-05-18T00:27:56.761Z,6.05
2023-05-18T00:30:25.626Z,6.18
2023-05-18T00:32:52.810Z,6.10
2023-05-18T00:35:26.762Z,6.72
2023-05-18T00:37:53.957Z,6.32
2023-05-18T00:40:28.750Z,6.25
2023-05-18T00:42:56.139Z,6.03
2023-05-18T00:45:23.422Z,6.47
2023-05-18T00:47:57.793Z,6.55
2023-05-18T00:50:25.004Z,6.80
2023-05-18T00:52:58.843Z,7.97
2023-05-18T00:55:28.084Z,6.75
2023-05-18T00:57:56.535Z,8.13
2023-05-18T01:00:30.728Z,7.65
2023-05-18T01:02:58.241Z,8.57
2023-05-18T01:05:31.994Z,8.25
2023-05-18T01:07:59.509Z,8.80
2023-05-18T01:10:39.847Z,8.60
2023-05-18T01:13:10.564Z,7.53
2023-05-18T01:15:38.763Z,9.00
2023-05-18T01:18:44.809Z,9.32
2023-05-18T01:21:25.769Z,8.77
2023-05-18T01:23:52.956Z,10.65
2023-05-18T01:26:43.751Z,10.25
2023-05-18T01:29:13.707Z,10.63
2023-05-18T01:31:47.718Z,9.55
2023-05-18T01:34:14.929Z,9.38
2023-05-18T01:36:48.734Z,8.13
2023-05-18T01:39:22.888Z,9.88
2023-05-18T01:42:10.274Z,10.70
2023-05-18T01:44:46.741Z,10.75
2023-05-18T01:47:15.065Z,11.10
2023-05-18T01:50:07.749Z,11.05
2023-05-18T01:52:43.539Z,11.85
2023-05-18T01:55:17.917Z,12.20
2023-05-18T01:57:46.115Z,12.48
2023-05-18T02:00:19.777Z,11.45
2023-05-18T02:02:47.109Z,14.23
2023-05-18T02:05:14.358Z,11.95
2023-05-18T02:07:50.804Z,12.45
2023-05-18T02:10:37.749Z,14.43
2023-05-18T02:13:11.912Z,12.48
2023-05-18T02:15:39.087Z,14.45
2023-05-18T02:18:08.475Z,16.08
2023-05-18T02:20:44.862Z,14.32
2023-05-18T02:23:12.151Z,14.40
2023-05-18T02:25:45.782Z,15.50
2023-05-18T02:28:13.004Z,18.17
2023-05-18T02:30:40.276Z,13.95
2023-05-18T02:33:15.749Z,16.23
2023-05-18T02:35:42.997Z,17.60
2023-05-18T02:38:16.729Z,15.90
2023-05-18T02:40:43.974Z,14.60
2023-05-18T02:43:17.868Z,15.30
2023-05-18T02:45:45.141Z,15.07
2023-05-18T02:48:12.369Z,15.52
2023-05-18T02:50:46.036Z,15.98
2023-05-18T02:53:13.249Z,17.05
2023-05-18T02:55:41.304Z,13.85
2023-05-18T02:58:14.773Z,16.55
2023-05-18T03:00:42.136Z,14.77
2023-05-18T03:03:16.868Z,15.27
2023-05-18T03:05:44.244Z,14.30
2023-05-18T03:08:11.380Z,14.30
2023-05-18T03:10:44.747Z,14.55
2023-05-18T03:13:11.916Z,15.55
2023-05-18T03:15:45.921Z,14.75
2023-05-18T03:18:13.332Z,15.50
2023-05-18T03:20:40.723Z,14.52
2023-05-18T03:23:14.755Z,13.63
2023-05-18T03:25:43.198Z,11.68
2023-05-18T03:28:16.758Z,11.48
2023-05-18T03:30:44.075Z,11.38
2023-05-18T03:33:12.219Z,11.05
2023-05-18T03:35:48.910Z,13.07
2023-05-18T03:38:16.193Z,13.05
2023-05-18T03:40:49.881Z,13.15
2023-05-18T03:43:17.051Z,13.10
2023-05-18T03:45:44.298Z,12.88
2023-05-18T03:48:17.770Z,12.00
2023-05-18T03:50:44.998Z,11.65
2023-05-18T03:53:20.053Z,12.32
2023-05-18T03:55:47.404Z,12.93
2023-05-18T03:58:14.546Z,14.27
2023-05-18T04:00:48.782Z,11.63
2023-05-18T04:03:16.163Z,12.10
2023-05-18T04:05:52.929Z,11.90
2023-05-18T04:08:20.606Z,11.15
2023-05-18T04:13:27.909Z,10.90
2023-05-18T04:15:55.090Z,10.07
2023-05-18T04:18:22.348Z,10.85
2023-05-18T04:20:56.846Z,11.90
2023-05-18T04:23:24.037Z,9.88
2023-05-18T04:25:51.563Z,10.75
2023-05-18T04:30:59.784Z,8.95
2023-05-18T04:33:33.801Z,9.23
2023-05-18T04:36:11.809Z,8.57
2023-05-18T04:38:45.913Z,8.57
2023-05-18T04:41:13.114Z,9.98
2023-05-18T04:43:41.711Z,9.18
2023-05-18T04:46:15.816Z,9.00
2023-05-18T04:48:43.335Z,8.35
2023-05-18T04:51:16.789Z,9.10
2023-05-18T04:53:46.148Z,9.23
2023-05-18T04:56:20.871Z,8.18
2023-05-18T04:58:48.194Z,9.23
2023-05-18T05:01:21.804Z,8.68
2023-05-18T05:03:58.169Z,9.02
2023-05-18T05:06:26.812Z,8.73
2023-05-18T05:09:07.806Z,8.50
2023-05-18T05:11:42.196Z,8.50
2023-05-18T05:14:15.934Z,8.50
2023-05-18T05:16:43.109Z,8.57
2023-05-18T05:19:10.271Z,7.75
2023-05-18T05:21:43.846Z,6.95
2023-05-18T05:24:11.204Z,8.20
2023-05-18T05:26:38.367Z,8.73
2023-05-18T05:29:12.794Z,8.15
2023-05-18T05:31:41.368Z,9.02
2023-05-18T05:34:14.924Z,8.00
2023-05-18T05:36:42.243Z,8.27
2023-05-18T05:39:09.625Z,6.82
2023-05-18T05:41:42.806Z,9.95
2023-05-18T05:44:10.035Z,8.98
2023-05-18T05:46:43.806Z,8.18
2023-05-18T05:49:17.936Z,8.57
2023-05-18T05:51:45.432Z,8.10
2023-05-18T05:54:12.767Z,7.43
2023-05-18T05:56:46.873Z,7.07
2023-05-18T05:59:20.789Z,8.02
2023-05-18T06:01:54.963Z,6.55
2023-05-18T06:04:22.370Z,6.13
2023-05-18T06:06:49.701Z,6.30
2023-05-18T06:09:23.809Z,6.40
2023-05-18T06:12:04.949Z,7.28
2023-05-18T06:14:32.122Z,6.18
2023-05-18T06:16:59.381Z,6.88
2023-05-18T06:19:32.816Z,6.38
2023-05-18T06:22:00.045Z,5.88
2023-05-18T06:24:33.949Z,5.28
2023-05-18T06:27:01.361Z,6.30
2023-05-18T06:29:29.048Z,4.68
2023-05-18T06:32:02.816Z,5.03
2023-05-18T06:34:30.084Z,5.10
2023-05-18T06:37:04.858Z,5.65
2023-05-18T06:39:32.089Z,4.78
2023-05-18T06:41:59.248Z,4.97
2023-05-18T06:44:32.865Z,5.57
2023-05-18T06:47:00.053Z,4.95
2023-05-18T06:49:33.985Z,4.55
2023-05-18T06:52:01.259Z,5.22
2023-05-18T06:54:29.894Z,4.88
2023-05-18T06:57:03.918Z,5.38
2023-05-18T06:59:31.129Z,5.35
2023-05-18T07:02:04.992Z,5.75
2023-05-18T07:04:32.321Z,5.63
2023-05-18T07:06:59.487Z,5.35
2023-05-18T07:09:32.846Z,5.03
2023-05-18T07:12:00.214Z,5.70
2023-05-18T07:14:33.883Z,4.30
2023-05-18T07:17:01.115Z,5.03
2023-05-18T07:19:28.493Z,4.78
2023-05-18T07:22:03.834Z,4.68
2023-05-18T07:24:31.445Z,4.78
2023-05-18T07:29:32.224Z,5.70
2023-05-18T07:31:59.591Z,5.43
2023-05-18T07:34:34.064Z,4.65
2023-05-18T07:37:01.503Z,4.53
2023-05-18T07:39:35.880Z,6.40
2023-05-18T07:42:03.090Z,4.45
2023-05-18T07:44:30.230Z,5.25
2023-05-18T07:47:03.933Z,4.65
2023-05-18T07:49:31.302Z,4.70
2023-05-18T07:52:05.883Z,4.78
2023-05-18T07:54:33.118Z,4.75
2023-05-18T07:57:00.846Z,4.63
2023-05-18T07:59:34.933Z,4.85
2023-05-18T08:02:02.336Z,4.13
2023-05-18T08:04:36.111Z,5.03
2023-05-18T08:07:05.028Z,4.80
2023-05-18T08:09:53.000Z,3.83
2023-05-18T08:12:20.333Z,5.32
2023-05-18T08:14:47.465Z,4.85
2023-05-18T08:17:20.892Z,4.13
2023-05-18T08:19:48.188Z,4.03
2023-05-18T08:22:15.964Z,4.93
2023-05-18T08:24:49.926Z,4.10
2023-05-18T08:27:17.155Z,4.28
2023-05-18T08:29:51.017Z,4.07
2023-05-18T08:32:18.356Z,4.40
2023-05-18T08:34:45.575Z,5.32
2023-05-18T08:37:19.076Z,4.03
2023-05-18T08:39:46.422Z,4.10
2023-05-18T08:42:49.955Z,4.72
2023-05-18T08:45:24.162Z,4.53
2023-05-18T08:47:57.990Z,4.00
2023-05-18T08:50:26.695Z,4.45
2023-05-18T08:53:01.898Z,4.15
2023-05-18T08:55:29.352Z,4.75
2023-05-18T09:00:30.735Z,4.22
2023-05-18T09:03:04.979Z,4.00
2023-05-18T09:05:33.100Z,4.38
2023-05-18T09:08:01.322Z,4.47
2023-05-18T09:10:36.081Z,4.65
2023-05-18T09:13:04.360Z,4.28
2023-05-18T09:15:31.771Z,4.10
2023-05-18T09:20:33.187Z,4.88
2023-05-18T09:23:06.884Z,4.10
2023-05-18T09:25:37.351Z,4.15
2023-05-18T09:28:11.872Z,4.35
2023-05-18T09:30:44.808Z,3.90
2023-05-18T09:33:28.027Z,3.92
2023-05-18T09:36:01.914Z,3.60
2023-05-18T09:38:29.560Z,3.65
2023-05-18T09:43:43.890Z,3.95
2023-05-18T09:46:12.069Z,3.40
2023-05-18T09:48:50.210Z,4.22
2023-05-18T09:51:18.180Z,4.40
2023-05-18T09:53:56.016Z,4.03
2023-05-18T09:56:24.064Z,3.67
2023-05-18T09:58:51.311Z,4.32
2023-05-18T10:01:25.012Z,3.95
2023-05-18T10:03:53.413Z,3.28
2023-05-18T10:06:28.895Z,3.58
2023-05-18T10:08:58.888Z,3.55
2023-05-18T10:11:39.999Z,3.33
2023-05-18T10:14:14.017Z,3.78
2023-05-18T10:16:50.383Z,3.65
2023-05-18T10:19:17.936Z,3.47
2023-05-18T10:21:45.475Z,3.63
2023-05-18T10:26:47.411Z,3.65
2023-05-18T10:29:20.973Z,3.17
2023-05-18T10:31:48.696Z,3.28
2023-05-18T10:34:24.947Z,3.25
2023-05-18T10:36:52.181Z,3.75
2023-05-18T10:39:19.651Z,3.63
2023-05-18T10:41:54.926Z,3.13
2023-05-18T10:44:22.743Z,3.55
2023-05-18T10:46:57.051Z,2.95
2023-05-18T10:49:26.339Z,3.10
2023-05-18T10:52:03.926Z,2.85
2023-05-18T10:54:37.956Z,2.97
2023-05-18T10:57:05.480Z,3.03
2023-05-18T11:02:09.013Z,2.92
2023-05-18T11:04:36.227Z,2.53
2023-05-18T11:07:10.090Z,2.50
2023-05-18T11:09:58.921Z,2.50
2023-05-18T11:15:01.029Z,2.60
2023-05-18T11:17:37.941Z,2.53
2023-05-18T11:20:09.025Z,2.58
2023-05-18T11:22:52.955Z,2.60
2023-05-18T11:25:26.545Z,2.67
2023-05-18T11:28:00.927Z,2.63
2023-05-18T11:30:28.914Z,2.70
2023-05-18T11:33:19.227Z,2.67
2023-05-18T11:35:58.879Z,2.60
2023-05-18T11:38:51.950Z,3.10
2023-05-18T11:41:31.941Z,2.90
2023-05-18T11:44:12.916Z,2.53
2023-05-18T11:46:55.433Z,3.05
2023-05-18T11:49:30.931Z,3.22
2023-05-18T11:51:59.099Z,3.00
2023-05-18T11:54:34.004Z,2.95
2023-05-18T11:57:01.304Z,2.58
2023-05-18T11:59:43.968Z,2.85
2023-05-18T12:02:21.159Z,3.15
2023-05-18T12:05:16.956Z,2.53
2023-05-18T12:07:45.117Z,2.90
2023-05-18T12:10:27.940Z,2.88
2023-05-18T12:12:55.683Z,3.10
2023-05-18T12:15:30.083Z,2.45
2023-05-18T12:17:59.456Z,2.80
2023-05-18T12:20:28.209Z,2.90
2023-05-18T12:23:01.925Z,3.05
2023-05-18T12:25:29.375Z,2.75
2023-05-18T12:30:36.808Z,2.95
2023-05-18T12:33:04.500Z,2.80
2023-05-18T12:35:38.948Z,3.10
2023-05-18T12:38:07.485Z,2.47
2023-05-18T12:40:51.121Z,3.20
2023-05-18T12:43:18.472Z,2.97
2023-05-18T12:45:45.894Z,2.95
2023-05-18T12:48:21.049Z,2.78
2023-05-18T12:50:48.908Z,2.25
2023-05-18T12:53:16.215Z,2.33
2023-05-18T12:55:50.030Z,2.80
2023-05-18T12:58:19.214Z,2.80
2023-05-18T13:00:47.615Z,2.90
2023-05-18T13:03:23.167Z,2.85
2023-05-18T13:06:19.033Z,3.10
2023-05-18T13:08:52.960Z,2.88
2023-05-18T13:11:33.995Z,2.60
2023-05-18T13:14:10.576Z,2.90
2023-05-18T13:16:52.012Z,2.65
2023-05-18T13:19:29.038Z,2.67
2023-05-18T13:22:03.042Z,2.22
2023-05-18T13:24:30.506Z,2.40
2023-05-18T13:29:31.162Z,2.40
2023-05-18T13:31:58.364Z,2.30
2023-05-18T13:34:25.710Z,2.13
2023-05-18T13:36:58.977Z,2.40
2023-05-18T13:39:33.002Z,2.10
2023-05-18T13:42:02.385Z,2.28
2023-05-18T13:44:29.720Z,2.08
2023-05-18T13:47:02.997Z,1.95
2023-05-18T13:49:30.234Z,2.42
2023-05-18T13:52:06.977Z,1.80
2023-05-18T13:54:34.271Z,2.10
2023-05-18T13:57:08.029Z,1.90
2023-05-18T13:59:35.511Z,2.15
2023-05-18T14:04:36.783Z,2.15
2023-05-18T14:07:04.146Z,2.38
2023-05-18T14:09:38.273Z,2.00
2023-05-18T14:12:13.013Z,2.10
2023-05-18T14:14:48.031Z,2.22
2023-05-18T14:17:15.579Z,2.17
2023-05-18T14:22:16.021Z,2.17
2023-05-18T14:24:50.216Z,2.17
2023-05-18T14:27:17.380Z,2.17
2023-05-18T14:29:51.214Z,2.15
2023-05-18T14:32:20.782Z,2.13
2023-05-18T14:34:55.017Z,2.40
2023-05-18T14:37:22.294Z,2.03
2023-05-18T14:39:56.022Z,1.90
2023-05-18T14:42:23.264Z,2.45
2023-05-18T14:44:50.484Z,1.90
2023-05-18T14:47:23.996Z,1.75
2023-05-18T14:49:51.327Z,1.90
2023-05-18T14:52:25.136Z,1.95
2023-05-18T14:54:52.364Z,1.75
2023-05-18T14:57:22.728Z,1.30
2023-05-18T14:59:57.999Z,1.75
2023-05-18T15:02:25.365Z,2.05
2023-05-18T15:04:59.164Z,1.67
2023-05-18T15:07:26.387Z,1.42
2023-05-18T15:09:53.905Z,1.80
2023-05-18T15:15:02.017Z,1.55
2023-05-18T15:17:36.031Z,1.33
2023-05-18T15:20:03.766Z,1.33
2023-05-18T15:22:38.054Z,1.20
2023-05-18T15:25:07.399Z,1.30
2023-05-18T15:27:41.169Z,1.17
2023-05-18T15:30:11.478Z,1.80
2023-05-18T15:32:39.384Z,1.20
2023-05-18T15:35:13.090Z,1.65
2023-05-18T15:37:40.689Z,1.30
2023-05-18T15:40:08.244Z,1.30
2023-05-18T15:45:16.081Z,1.30
2023-05-18T15:47:43.360Z,1.40
2023-05-18T15:50:10.750Z,1.25
2023-05-18T15:52:45.073Z,1.25
2023-05-18T15:55:12.385Z,1.35
2023-05-18T15:57:39.551Z,1.40
2023-05-18T16:00:14.062Z,1.48
2023-05-18T16:02:41.406Z,1.00
2023-05-18T16:05:15.263Z,1.02
2023-05-18T16:07:42.463Z,0.93
2023-05-18T16:10:23.053Z,0.70
2023-05-18T16:13:07.232Z,0.80
2023-05-18T16:15:35.467Z,1.15
2023-05-18T16:18:02.940Z,1.20
2023-05-18T16:23:04.538Z,1.33
2023-05-18T16:25:32.704Z,1.23
2023-05-18T16:28:06.048Z,1.15
2023-05-18T16:30:33.455Z,1.25
2023-05-18T16:35:34.603Z,1.23
2023-05-18T16:38:01.800Z,1.20
2023-05-18T16:40:35.236Z,1.30
2023-05-18T16:43:02.496Z,1.10
2023-05-18T16:45:29.696Z,1.48
2023-05-18T16:48:03.143Z,1.10
2023-05-18T16:50:31.748Z,1.52
2023-05-18T16:52:59.026Z,1.20
2023-05-18T16:55:33.065Z,1.38
2023-05-18T16:58:00.502Z,1.27
2023-05-18T17:00:34.404Z,1.73
2023-05-18T17:03:03.494Z,1.30
2023-05-18T17:05:30.884Z,1.63
2023-05-18T17:08:04.146Z,1.10
2023-05-18T17:10:38.220Z,1.65
2023-05-18T17:13:18.110Z,1.30
2023-05-18T17:15:45.475Z,1.40
2023-05-18T17:18:12.768Z,1.40
2023-05-18T17:20:46.259Z,1.58
2023-05-18T17:23:17.459Z,1.20
2023-05-18T17:25:44.708Z,1.80
2023-05-18T17:28:20.222Z,1.52
2023-05-18T17:30:47.535Z,1.83
2023-05-18T17:33:14.751Z,1.30
2023-05-18T17:35:48.110Z,1.80
2023-05-18T17:38:17.138Z,1.45
2023-05-18T17:40:44.423Z,1.65
2023-05-18T17:43:18.115Z,1.80
2023-05-18T17:45:45.396Z,1.90
2023-05-18T17:48:19.084Z,2.00
2023-05-18T17:50:47.605Z,1.80
2023-05-18T17:53:21.086Z,1.75
2023-05-18T17:55:48.758Z,1.55
2023-05-18T17:58:16.003Z,2.13
2023-05-18T18:00:50.228Z,1.70
2023-05-18T18:03:17.975Z,1.92
2023-05-18T18:05:52.283Z,1.58
2023-05-18T18:08:22.429Z,1.75
2023-05-18T18:11:03.097Z,2.00
2023-05-18T18:13:37.136Z,2.33
2023-05-18T18:16:04.407Z,1.98
2023-05-18T18:18:32.592Z,2.05
2023-05-18T18:21:06.107Z,2.47
2023-05-18T18:23:33.665Z,2.28
2023-05-18T18:28:34.798Z,1.88
2023-05-18T18:33:35.688Z,1.73
2023-05-18T18:36:05.541Z,1.95
2023-05-18T18:38:40.246Z,2.30
2023-05-18T18:41:07.559Z,1.90
2023-05-18T18:43:38.596Z,1.90
2023-05-18T18:46:12.196Z,2.40
2023-05-18T18:48:39.429Z,2.13
2023-05-18T18:51:13.287Z,2.50
2023-05-18T18:53:40.592Z,2.00
2023-05-18T18:56:07.777Z,2.42
2023-05-18T18:58:41.257Z,1.73
2023-05-18T19:01:08.661Z,1.88
2023-05-18T19:03:42.122Z,2.15
2023-05-18T19:06:09.379Z,1.88
2023-05-18T19:08:43.263Z,1.65
2023-05-18T19:11:30.118Z,2.20
2023-05-18T19:14:04.236Z,2.13
2023-05-18T19:16:32.877Z,2.22
2023-05-18T19:19:00.205Z,2.20
2023-05-18T19:21:35.197Z,2.20
2023-05-18T19:24:03.549Z,2.40
2023-05-18T19:26:31.404Z,2.08
2023-05-18T19:29:05.259Z,2.38
2023-05-18T19:31:34.365Z,2.40
2023-05-18T19:34:01.636Z,2.50
2023-05-18T19:36:35.133Z,2.17
2023-05-18T19:39:09.277Z,2.45
2023-05-18T19:41:36.444Z,2.55
2023-05-18T19:44:03.717Z,2.20
2023-05-18T19:46:37.309Z,2.38
2023-05-18T19:49:06.599Z,2.20
2023-05-18T19:51:41.180Z,2.35
2023-05-18T19:54:08.419Z,2.63
2023-05-18T19:56:36.378Z,2.60
2023-05-18T19:59:10.255Z,2.35
2023-05-18T20:01:37.564Z,2.42
2023-05-18T20:04:04.877Z,2.85
2023-05-18T20:06:39.209Z,2.40
2023-05-18T20:09:06.483Z,2.60
2023-05-18T20:11:40.122Z,2.33
2023-05-18T20:14:14.084Z,2.72
2023-05-18T20:16:48.227Z,2.35
2023-05-18T20:19:17.818Z,2.42
2023-05-18T20:22:00.167Z,2.90
2023-05-18T20:24:34.126Z,2.20
2023-05-18T20:27:08.184Z,2.10
2023-05-18T20:29:35.619Z,2.30
2023-05-18T20:32:02.760Z,2.72
2023-05-18T20:34:36.139Z,2.25
2023-05-18T20:37:04.109Z,2.17
2023-05-18T20:39:38.164Z,2.35
2023-05-18T20:42:05.628Z,2.47
2023-05-18T20:44:32.880Z,2.47
2023-05-18T20:47:07.165Z,2.60
2023-05-18T20:49:34.387Z,3.13
2023-05-18T20:52:08.214Z,2.63
2023-05-18T20:54:35.537Z,2.70
2023-05-18T20:57:03.979Z,2.70
2023-05-18T20:59:38.165Z,2.70
2023-05-18T21:02:05.972Z,2.70
2023-05-18T21:04:40.146Z,2.67
2023-05-18T21:07:07.466Z,2.70
2023-05-18T21:09:41.183Z,2.92
2023-05-18T21:12:28.185Z,3.00
2023-05-18T21:15:02.153Z,2.85
2023-05-18T21:17:29.481Z,2.72
2023-05-18T21:20:03.195Z,3.05
2023-05-18T21:22:30.733Z,2.90
2023-05-18T21:24:57.988Z,3.08
2023-05-18T21:27:32.157Z,3.13
2023-05-18T21:29:59.381Z,3.67
2023-05-18T21:32:33.392Z,3.05
2023-05-18T21:35:00.880Z,3.22
2023-05-18T21:37:28.036Z,3.80
2023-05-18T21:40:02.171Z,3.42
2023-05-18T21:42:29.348Z,2.50
2023-05-18T21:45:03.170Z,2.92
2023-05-18T21:47:30.575Z,2.72
2023-05-18T21:50:04.240Z,2.67
2023-05-18T21:52:31.628Z,2.90
2023-05-18T21:54:58.787Z,2.97
2023-05-18T21:57:32.191Z,2.65
2023-05-18T21:59:59.421Z,2.80
2023-05-18T22:02:33.186Z,2.88
2023-05-18T22:05:00.649Z,3.08
2023-05-18T22:07:34.337Z,3.10
2023-05-18T22:10:01.629Z,3.25
2023-05-18T22:12:44.326Z,3.72
2023-05-18T22:15:11.669Z,3.10
2023-05-18T22:17:39.331Z,3.08
2023-05-18T22:20:17.189Z,3.72
2023-05-18T22:22:44.774Z,3.35
2023-05-18T22:25:20.303Z,3.38
2023-05-18T22:27:48.163Z,3.55
2023-05-18T22:30:15.419Z,3.38
2023-05-18T22:32:51.370Z,3.55
2023-05-18T22:35:18.694Z,4.00
2023-05-18T22:37:46.350Z,3.58
2023-05-18T22:42:47.566Z,3.25
2023-05-18T22:45:14.707Z,4.25
2023-05-18T22:47:51.485Z,3.60
2023-05-18T22:50:25.218Z,3.42
2023-05-18T22:52:52.444Z,4.43
2023-05-18T22:55:26.222Z,3.78
2023-05-18T22:57:53.431Z,3.72
2023-05-18T23:00:20.847Z,4.53
2023-05-18T23:02:54.329Z,3.63
2023-05-18T23:05:21.638Z,3.53
2023-05-18T23:07:50.245Z,3.47
2023-05-18T23:10:25.193Z,3.15
2023-05-18T23:13:06.189Z,3.40
2023-05-18T23:15:48.268Z,3.90
2023-05-18T23:18:29.196Z,4.25
2023-05-18T23:20:58.450Z,4.47
2023-05-18T23:23:35.194Z,3.85
2023-05-18T23:26:02.418Z,4.63
2023-05-18T23:28:36.213Z,4.25
2023-05-18T23:31:03.467Z,5.28
2023-05-18T23:33:37.351Z,4.20
2023-05-18T23:36:05.355Z,4.50
2023-05-18T23:38:34.860Z,4.70
2023-05-18T23:41:09.187Z,4.30
2023-05-18T23:43:36.525Z,4.10
2023-05-18T23:46:11.377Z,4.20
2023-05-18T23:48:38.735Z,4.30
2023-05-18T23:51:07.217Z,3.85
2023-05-18T23:53:42.185Z,4.15
2023-05-18T23:56:09.552Z,4.10
2023-05-18T23:58:43.193Z,4.35
